Time;durP1;ratioP1;P1;durP2;ratioP2;P2;SDS_P1;SDS_P2;PMS_P1;PMS_P2;Temp;Humidity;BMP_temperature;BMP_pressure;BME280_temperature;BME280_humidity;BME280_pressure;Samples;Min_cycle;Max_cycle;Signal;HPM_P1;HPM_P2
2022/04/26 03:37:19;;;;;;;;;;;20.60;49.70;;;;;;5095301;28;19924;-46
2022/04/26 03:39:46;;;;;;;;;;;20.60;49.70;;;;;;5095307;28;19924;-44
2022/04/26 03:42:13;;;;;;;;;;;20.60;49.70;;;;;;5095270;28;19932;-48
2022/04/26 03:44:42;;;;;;;;;;;20.60;49.70;;;;;;5094899;28;19924;-44
2022/04/26 03:47:09;;;;;;;;;;;20.60;49.70;;;;;;5094540;28;20338;-47
2022/04/26 03:49:36;;;;;;;;;;;20.60;49.70;;;;;;5095099;28;19928;-45
2022/04/26 03:52:04;;;;;;;;;;;20.60;49.70;;;;;;5094597;28;19930;-44
2022/04/26 03:54:31;;;;;;;;;;;20.60;49.70;;;;;;5095158;28;19924;-46
2022/04/26 03:56:58;;;;;;;;;;;20.60;49.70;;;;;;5094920;28;19924;-46
2022/04/26 03:59:25;;;;;;;;;;;20.60;49.70;;;;;;5095099;28;19928;-45
2022/04/26 04:01:52;;;;;;;;;;;20.60;49.70;;;;;;5094177;28;19931;-44
2022/04/26 04:04:19;;;;;;;;;;;20.60;49.70;;;;;;5094552;28;19924;-45
2022/04/26 04:06:46;;;;;;;;;;;20.60;49.70;;;;;;5094519;28;19978;-45
2022/04/26 04:09:13;;;;;;;;;;;20.60;49.70;;;;;;5094200;28;19931;-44
2022/04/26 04:11:40;;;;;;;;;;;20.60;49.70;;;;;;5094752;28;19977;-44
2022/04/26 04:14:07;;;;;;;;;;;20.60;49.70;;;;;;5094389;28;19924;-44
2022/04/26 04:16:34;;;;;;;;;;;20.60;49.60;;;;;;5094563;28;19928;-44
2022/04/26 04:19:20;;;;;;;;;;;20.60;49.70;;;;;;5094397;28;19924;-46
2022/04/26 04:21:49;;;;;;;;;;;20.60;49.70;;;;;;5094011;28;20023;-44
2022/04/26 04:24:16;;;;;;;;;;;20.60;49.60;;;;;;5093441;28;19928;-46
2022/04/26 04:26:43;;;;;;;;;;;20.60;49.60;;;;;;5093598;28;20437;-43
2022/04/26 04:29:10;;;;;;;;;;;20.60;49.60;;;;;;5094222;28;19930;-43
2022/04/26 04:31:37;;;;;;;;;;;20.70;49.70;;;;;;5093865;28;19928;-44
2022/04/26 04:34:04;;;;;;;;;;;20.70;49.60;;;;;;5094380;28;19924;-44
2022/04/26 04:36:31;;;;;;;;;;;20.60;49.50;;;;;;5093824;28;19928;-44
2022/04/26 04:38:58;;;;;;;;;;;20.60;49.50;;;;;;5093701;28;19954;-44
2022/04/26 04:41:26;;;;;;;;;;;20.60;49.50;;;;;;5093791;28;19985;-44
2022/04/26 04:43:53;;;;;;;;;;;20.60;49.50;;;;;;5094036;28;20295;-44
2022/04/26 04:46:20;;;;;;;;;;;20.70;49.60;;;;;;5094004;28;20342;-47
2022/04/26 04:48:47;;;;;;;;;;;20.70;49.50;;;;;;5093579;28;20394;-49
2022/04/26 04:51:14;;;;;;;;;;;20.70;49.50;;;;;;5093477;28;19924;-48
2022/04/26 04:53:41;;;;;;;;;;;20.70;49.50;;;;;;5093699;28;19924;-49
2022/04/26 04:56:09;;;;;;;;;;;20.70;49.50;;;;;;5093617;28;19924;-48
2022/04/26 04:58:36;;;;;;;;;;;20.70;49.40;;;;;;5093510;28;19928;-48
2022/04/26 05:01:04;;;;;;;;;;;20.70;49.40;;;;;;5093305;28;20380;-51
2022/04/26 05:03:31;;;;;;;;;;;20.70;49.30;;;;;;5093664;28;19924;-48
2022/04/26 05:05:58;;;;;;;;;;;20.70;49.30;;;;;;5093624;28;19928;-51
2022/04/26 05:08:25;;;;;;;;;;;20.70;49.30;;;;;;5093128;28;20380;-46
2022/04/26 05:10:52;;;;;;;;;;;20.70;49.30;;;;;;5093501;28;19928;-51
2022/04/26 05:13:19;;;;;;;;;;;20.80;49.30;;;;;;5093111;28;19924;-46
2022/04/26 05:15:47;;;;;;;;;;;20.80;49.30;;;;;;5093520;28;20343;-44
2022/04/26 05:18:14;;;;;;;;;;;20.80;49.30;;;;;;5093392;28;20010;-44
2022/04/26 05:20:41;;;;;;;;;;;20.80;49.30;;;;;;5074680;28;20383;-48
2022/04/26 05:25:54;;;;;;;;;;;20.80;49.20;;;;;;5073415;28;19947;-44
2022/04/26 05:28:21;;;;;;;;;;;20.80;49.20;;;;;;5072852;28;20380;-45
2022/04/26 05:30:52;;;;;;;;;;;20.80;49.20;;;;;;5073383;28;20269;-44
2022/04/26 05:33:21;;;;;;;;;;;20.80;49.20;;;;;;5073066;28;19924;-44
2022/04/26 05:35:49;;;;;;;;;;;20.80;49.20;;;;;;5085453;28;19924;-43
2022/04/26 05:38:16;;;;;;;;;;;20.80;49.10;;;;;;5096637;28;19969;-44
2022/04/26 05:40:44;;;;;;;;;;;20.80;49.10;;;;;;5097348;28;19958;-43
2022/04/26 05:43:11;;;;;;;;;;;20.90;49.10;;;;;;5097267;28;19924;-44
2022/04/26 05:45:38;;;;;;;;;;;20.90;49.10;;;;;;5097095;28;19924;-44
2022/04/26 05:48:09;;;;;;;;;;;20.90;49.00;;;;;;5096945;28;19960;-44
2022/04/26 05:50:37;;;;;;;;;;;20.90;49.00;;;;;;5097392;28;19928;-47
2022/04/26 05:53:04;;;;;;;;;;;20.90;48.90;;;;;;5097012;28;20380;-50
2022/04/26 05:55:31;;;;;;;;;;;20.90;48.90;;;;;;5078100;28;20296;-45
2022/04/26 05:57:58;;;;;;;;;;;21.00;48.90;;;;;;5076770;28;19924;-45
2022/04/26 06:00:25;;;;;;;;;;;20.90;48.90;;;;;;5076595;28;19924;-44
2022/04/26 06:02:52;;;;;;;;;;;21.00;48.90;;;;;;5093956;28;19925;-47
2022/04/26 06:05:20;;;;;;;;;;;20.90;48.80;;;;;;5096794;28;19928;-44
2022/04/26 06:07:47;;;;;;;;;;;20.90;48.80;;;;;;5097121;28;19931;-44
2022/04/26 06:10:14;;;;;;;;;;;20.90;48.80;;;;;;5096473;28;20295;-46
2022/04/26 06:12:44;;;;;;;;;;;20.90;48.80;;;;;;5096988;28;19931;-44
2022/04/26 06:15:12;;;;;;;;;;;20.90;48.90;;;;;;5096412;28;20383;-44
2022/04/26 06:17:39;;;;;;;;;;;21.00;48.90;;;;;;5095919;28;19931;-45
2022/04/26 06:20:06;;;;;;;;;;;20.90;48.80;;;;;;5096472;28;19924;-44
2022/04/26 06:22:33;;;;;;;;;;;21.00;48.90;;;;;;5096140;28;19924;-45
2022/04/26 06:25:00;;;;;;;;;;;21.00;48.80;;;;;;5096283;28;19924;-46
2022/04/26 06:27:27;;;;;;;;;;;21.00;48.80;;;;;;5096619;28;19963;-44
2022/04/26 06:29:55;;;;;;;;;;;21.10;48.80;;;;;;5096292;28;20372;-45
2022/04/26 06:32:21;;;;;;;;;;;21.10;48.70;;;;;;5096127;28;19928;-44
2022/04/26 06:34:48;;;;;;;;;;;21.10;48.70;;;;;;5096639;28;19928;-44
2022/04/26 06:37:15;;;;;;;;;;;21.10;48.70;;;;;;5096442;28;20341;-45
2022/04/26 06:39:42;;;;;;;;;;;21.10;48.60;;;;;;5075850;28;19924;-44
2022/04/26 06:42:10;;;;;;;;;;;21.10;48.50;;;;;;5075860;28;19931;-47
2022/04/26 06:44:37;;;;;;;;;;;21.20;48.60;;;;;;5075741;28;19929;-43
2022/04/26 06:47:04;;;;;;;;;;;21.20;48.60;;;;;;5075722;28;19924;-44
2022/04/26 06:49:32;;;;;;;;;;;21.10;48.40;;;;;;5075194;28;19970;-45
2022/04/26 06:51:59;;;;;;;;;;;21.20;48.50;;;;;;5095779;28;19955;-45
2022/04/26 06:54:26;;;;;;;;;;;21.10;48.40;;;;;;5096084;28;20314;-44
2022/04/26 06:56:53;;;;;;;;;;;21.20;48.40;;;;;;5096212;28;20269;-45
2022/04/26 06:59:20;;;;;;;;;;;21.10;48.30;;;;;;5095723;28;19924;-46
2022/04/26 07:01:54;;;;;;;;;;;21.10;48.30;;;;;;5095500;28;19980;-44
2022/04/26 07:04:21;;;;;;;;;;;21.10;48.20;;;;;;5095738;28;19931;-46
2022/04/26 07:06:49;;;;;;;;;;;21.20;48.40;;;;;;5095659;28;19924;-49
2022/04/26 07:09:16;;;;;;;;;;;21.20;48.30;;;;;;5095247;28;19924;-46
2022/04/26 07:11:43;;;;;;;;;;;21.20;48.30;;;;;;5095719;28;20404;-45
2022/04/26 07:14:11;;;;;;;;;;;21.20;48.20;;;;;;5094623;28;19931;-46
2022/04/26 07:16:49;;;;;;;;;;;21.20;48.20;;;;;;5095791;28;19964;-45
2022/04/26 07:19:17;;;;;;;;;;;21.30;48.20;;;;;;5095764;28;19924;-48
2022/04/26 07:21:46;;;;;;;;;;;21.20;48.10;;;;;;5095215;28;19928;-45
2022/04/26 07:24:32;;;;;;;;;;;21.30;48.10;;;;;;5095060;28;20299;-45
2022/04/26 07:26:59;;;;;;;;;;;21.30;48.10;;;;;;5077265;28;19956;-44
2022/04/26 07:29:26;;;;;;;;;;;21.30;48.00;;;;;;5095182;28;19928;-44
2022/04/26 07:31:53;;;;;;;;;;;21.30;48.00;;;;;;5095470;28;19925;-45
2022/04/26 07:34:24;;;;;;;;;;;21.30;47.90;;;;;;5095135;28;20354;-44
2022/04/26 07:37:04;;;;;;;;;;;21.30;47.80;;;;;;5095168;28;19924;-44
2022/04/26 07:39:35;;;;;;;;;;;21.40;47.90;;;;;;5095057;28;20007;-45
2022/04/26 07:42:04;;;;;;;;;;;21.50;47.90;;;;;;5095078;28;20383;-44
2022/04/26 07:44:33;;;;;;;;;;;21.40;47.80;;;;;;5094789;28;19924;-44
2022/04/26 07:47:02;;;;;;;;;;;21.40;47.80;;;;;;5084387;28;19925;-46
2022/04/26 07:49:29;;;;;;;;;;;21.40;47.70;;;;;;5074552;28;19931;-47
2022/04/26 07:51:56;;;;;;;;;;;21.40;47.70;;;;;;5056816;28;19931;-44
2022/04/26 07:54:23;;;;;;;;;;;21.50;47.70;;;;;;5074740;28;20315;-45
2022/04/26 07:56:51;;;;;;;;;;;21.50;47.70;;;;;;5074841;28;20294;-46
2022/04/26 07:59:18;;;;;;;;;;;21.50;47.60;;;;;;5074719;28;19928;-44
2022/04/26 08:01:45;;;;;;;;;;;21.50;47.60;;;;;;5081660;28;19927;-44
2022/04/26 08:04:12;;;;;;;;;;;21.50;47.60;;;;;;5094436;28;19924;-44
2022/04/26 08:06:39;;;;;;;;;;;21.50;47.50;;;;;;5094807;28;20331;-44
2022/04/26 08:09:06;;;;;;;;;;;21.60;47.50;;;;;;5093311;28;19969;-46
2022/04/26 08:11:33;;;;;;;;;;;21.60;47.50;;;;;;5094347;28;19973;-47
2022/04/26 08:14:00;;;;;;;;;;;21.60;47.40;;;;;;5094495;28;20299;-47
2022/04/26 08:16:27;;;;;;;;;;;21.60;47.40;;;;;;5094397;28;19928;-48
2022/04/26 08:18:54;;;;;;;;;;;21.60;47.30;;;;;;5076248;28;19963;-51
2022/04/26 08:21:22;;;;;;;;;;;21.60;47.30;;;;;;5094067;28;19977;-52
2022/04/26 08:29:25;;;;;;;;;;;21.60;47.10;;;;;;5074053;28;20012;-50
2022/04/26 08:31:55;;;;;;;;;;;21.70;47.10;;;;;;5091203;28;19925;-44
2022/04/26 08:34:23;;;;;;;;;;;21.70;47.10;;;;;;5094149;28;19946;-47
2022/04/26 08:36:50;;;;;;;;;;;21.70;47.10;;;;;;5094035;28;19924;-47
2022/04/26 08:39:17;;;;;;;;;;;21.70;47.00;;;;;;5093851;28;19935;-45
2022/04/26 08:41:44;;;;;;;;;;;21.80;47.00;;;;;;5075908;28;19932;-45
2022/04/26 08:44:11;;;;;;;;;;;21.70;46.90;;;;;;5093600;28;19931;-44
2022/04/26 08:52:11;;;;;;;;;;;21.80;46.90;;;;;;5093558;28;19924;-46
2022/04/26 08:54:38;;;;;;;;;;;21.80;46.90;;;;;;5093571;28;19970;-47
2022/04/26 08:57:12;;;;;;;;;;;21.80;46.90;;;;;;5093640;28;19925;-49
2022/04/26 08:59:52;;;;;;;;;;;21.80;46.90;;;;;;5093458;28;20006;-46
2022/04/26 09:02:20;;;;;;;;;;;21.80;46.90;;;;;;5093247;28;19924;-47
2022/04/26 09:04:52;;;;;;;;;;;21.80;46.80;;;;;;5092549;28;20372;-46
2022/04/26 09:07:30;;;;;;;;;;;21.80;46.80;;;;;;5093633;28;20261;-45
2022/04/26 09:10:03;;;;;;;;;;;21.80;46.70;;;;;;5078537;28;20011;-45
2022/04/26 09:12:31;;;;;;;;;;;21.80;46.70;;;;;;5073123;28;19963;-46
2022/04/26 09:15:12;;;;;;;;;;;21.90;46.70;;;;;;5073041;28;19928;-44
2022/04/26 09:17:39;;;;;;;;;;;21.80;46.60;;;;;;5073263;28;19924;-44
2022/04/26 09:20:08;;;;;;;;;;;21.80;46.60;;;;;;5075655;28;19967;-46
2022/04/26 09:22:35;;;;;;;;;;;21.80;46.60;;;;;;5072915;28;19931;-50
2022/04/26 09:25:04;;;;;;;;;;;21.80;46.60;;;;;;5073166;28;19924;-44
2022/04/26 09:27:34;;;;;;;;;;;21.80;46.60;;;;;;5085710;28;20332;-47
2022/04/26 09:30:08;;;;;;;;;;;21.90;46.70;;;;;;5093059;28;19931;-49
2022/04/26 09:32:47;;;;;;;;;;;21.80;46.60;;;;;;5093147;28;20015;-47
2022/04/26 09:35:20;;;;;;;;;;;21.90;46.60;;;;;;5092953;28;19924;-48
2022/04/26 09:37:48;;;;;;;;;;;21.80;46.50;;;;;;5093620;28;20268;-47
2022/04/26 09:40:26;;;;;;;;;;;21.90;46.60;;;;;;5093357;28;19986;-47
2022/04/26 09:42:54;;;;;;;;;;;21.90;46.50;;;;;;5093482;28;20361;-47
2022/04/26 09:45:21;;;;;;;;;;;21.90;46.40;;;;;;5092993;28;19924;-45
2022/04/26 09:47:50;;;;;;;;;;;21.90;46.40;;;;;;5093314;28;20004;-48
2022/04/26 09:50:17;;;;;;;;;;;22.00;46.40;;;;;;5092660;28;19977;-45
2022/04/26 09:52:44;;;;;;;;;;;22.00;46.40;;;;;;5093398;28;20049;-50
2022/04/26 09:55:14;;;;;;;;;;;22.00;46.40;;;;;;5093308;28;19924;-45
2022/04/26 09:57:44;;;;;;;;;;;22.00;46.30;;;;;;5092933;28;19924;-49
2022/04/26 10:00:12;;;;;;;;;;;22.00;46.30;;;;;;5092978;28;20015;-45
2022/04/26 10:02:51;;;;;;;;;;;22.00;46.30;;;;;;5085509;28;19925;-44
2022/04/26 10:05:21;;;;;;;;;;;21.90;46.30;;;;;;5079476;28;19924;-48
2022/04/26 10:07:49;;;;;;;;;;;22.00;46.30;;;;;;5092523;28;19928;-47
2022/04/26 10:10:18;;;;;;;;;;;22.00;46.30;;;;;;5074732;28;19925;-50
2022/04/26 10:13:31;;;;;;;;;;;22.00;46.30;;;;;;5075971;28;19935;-48
2022/04/26 10:15:35;;;;;;;;;;;22.00;46.30;;;;;;5080151;28;19947;-45
2022/04/26 10:18:22;;;;;;;;;;;22.00;46.40;;;;;;5079071;28;20269;-45
2022/04/26 10:20:49;;;;;;;;;;;21.90;46.30;;;;;;5093273;28;20366;-45
2022/04/26 10:23:16;;;;;;;;;;;22.00;46.40;;;;;;5090816;28;19947;-44
2022/04/26 10:26:23;;;;;;;;;;;22.00;46.40;;;;;;5096332;28;19974;-44
2022/04/26 10:28:54;;;;;;;;;;;22.00;46.40;;;;;;5034186;28;19925;-44
2022/04/26 10:31:33;;;;;;;;;;;22.00;46.30;;;;;;5033948;28;19925;-45
2022/04/26 10:34:23;;;;;;;;;;;22.00;46.30;;;;;;5034296;28;19933;-46
2022/04/26 10:36:51;;;;;;;;;;;22.00;46.30;;;;;;5027898;28;19925;-45
2022/04/26 10:39:30;;;;;;;;;;;22.00;46.20;;;;;;5033728;28;19971;-47
2022/04/26 10:41:59;;;;;;;;;;;22.00;46.20;;;;;;5034029;28;19925;-45
2022/04/26 10:44:28;;;;;;;;;;;22.00;46.20;;;;;;5033832;28;20301;-44
2022/04/26 10:46:55;;;;;;;;;;;22.10;46.20;;;;;;5033831;28;19932;-45
2022/04/26 10:49:25;;;;;;;;;;;22.00;46.10;;;;;;5033790;28;19925;-45
2022/04/26 10:51:55;;;;;;;;;;;22.10;46.10;;;;;;5033385;28;20028;-48
2022/04/26 10:54:40;;;;;;;;;;;22.10;46.10;;;;;;5033680;28;19971;-48
2022/04/26 10:57:08;;;;;;;;;;;22.10;46.10;;;;;;5034129;28;19933;-46
2022/04/26 10:59:39;;;;;;;;;;;22.10;46.00;;;;;;5057998;28;20431;-45
2022/04/26 11:02:10;;;;;;;;;;;22.10;46.00;;;;;;5075667;28;19928;-47
2022/04/26 11:04:37;;;;;;;;;;;22.10;46.00;;;;;;5075820;28;19966;-46
2022/04/26 11:07:10;;;;;;;;;;;22.10;46.00;;;;;;5075919;28;19946;-47
2022/04/26 11:09:44;;;;;;;;;;;22.10;45.90;;;;;;5069326;28;19934;-44
2022/04/26 11:12:11;;;;;;;;;;;22.10;45.90;;;;;;5095124;28;19923;-47
2022/04/26 11:14:42;;;;;;;;;;;22.10;45.90;;;;;;5074922;28;19925;-45
2022/04/26 11:17:09;;;;;;;;;;;22.10;45.80;;;;;;5086334;28;19924;-46
2022/04/26 11:19:38;;;;;;;;;;;22.20;45.90;;;;;;5095188;28;19954;-48
2022/04/26 11:22:06;;;;;;;;;;;22.20;45.90;;;;;;5095274;28;19928;-45
2022/04/26 11:30:09;;;;;;;;;;;22.10;45.80;;;;;;5095224;28;20363;-46
2022/04/26 11:32:44;;;;;;;;;;;22.20;45.90;;;;;;5095361;28;19931;-48
2022/04/26 11:35:13;;;;;;;;;;;22.10;45.80;;;;;;5094751;28;19998;-45
2022/04/26 11:37:47;;;;;;;;;;;22.20;45.90;;;;;;5094808;28;19924;-46
2022/04/26 11:40:25;;;;;;;;;;;22.20;45.90;;;;;;5094805;28;19928;-48
2022/04/26 11:42:54;;;;;;;;;;;22.20;45.90;;;;;;5094698;28;19931;-49
2022/04/26 11:45:21;;;;;;;;;;;22.20;45.90;;;;;;5095399;28;19960;-46
2022/04/26 11:47:49;;;;;;;;;;;22.20;45.90;;;;;;5095278;28;20329;-45
2022/04/26 11:50:24;;;;;;;;;;;22.10;45.80;;;;;;5094359;28;19928;-48
2022/04/26 11:52:53;;;;;;;;;;;22.10;45.80;;;;;;5094472;28;19928;-48
2022/04/26 11:55:25;;;;;;;;;;;22.20;45.90;;;;;;5094287;28;19975;-48
2022/04/26 11:57:54;;;;;;;;;;;22.10;45.70;;;;;;5094755;28;19924;-45
2022/04/26 12:00:21;;;;;;;;;;;22.20;45.80;;;;;;5094321;28;20021;-45
2022/04/26 12:02:49;;;;;;;;;;;22.20;45.70;;;;;;5094713;28;19924;-46
2022/04/26 12:05:19;;;;;;;;;;;22.20;45.70;;;;;;5094934;28;19928;-46
2022/04/26 12:07:47;;;;;;;;;;;22.20;45.70;;;;;;5094677;28;19990;-51
2022/04/26 12:10:47;;;;;;;;;;;22.20;45.70;;;;;;5076987;28;19925;-46
2022/04/26 12:13:14;;;;;;;;;;;22.20;45.60;;;;;;5076210;28;19931;-53
2022/04/26 12:15:42;;;;;;;;;;;22.20;45.60;;;;;;5094131;28;19924;-45
2022/04/26 12:18:10;;;;;;;;;;;22.20;45.60;;;;;;5094456;28;19938;-45
2022/04/26 12:20:55;;;;;;;;;;;22.20;45.60;;;;;;5094613;28;20007;-46
2022/04/26 12:23:23;;;;;;;;;;;22.20;45.60;;;;;;5093767;28;19972;-53
2022/04/26 12:25:51;;;;;;;;;;;22.20;45.60;;;;;;5094393;28;19924;-47
2022/04/26 12:28:18;;;;;;;;;;;22.20;45.70;;;;;;5094014;28;19924;-45
2022/04/26 12:30:45;;;;;;;;;;;22.10;45.60;;;;;;5094098;28;19931;-50
2022/04/26 12:33:24;;;;;;;;;;;22.10;45.80;;;;;;5094210;28;19931;-49
2022/04/26 12:36:05;;;;;;;;;;;22.10;45.80;;;;;;5094095;28;20019;-51
2022/04/26 12:38:45;;;;;;;;;;;22.00;45.90;;;;;;5094092;28;19931;-46
2022/04/26 12:41:12;;;;;;;;;;;22.00;46.00;;;;;;5094237;28;19924;-46
2022/04/26 12:43:40;;;;;;;;;;;21.90;46.00;;;;;;5093970;28;20349;-46
2022/04/26 12:46:07;;;;;;;;;;;21.90;46.10;;;;;;5093672;28;19924;-48
2022/04/26 12:51:27;;;;;;;;;;;21.90;46.20;;;;;;5092960;28;19954;-53
2022/04/26 12:54:08;;;;;;;;;;;21.90;46.20;;;;;;5093884;28;20302;-46
2022/04/26 12:56:35;;;;;;;;;;;21.90;46.20;;;;;;5093762;28;19931;-50
2022/04/26 12:59:02;;;;;;;;;;;21.90;46.20;;;;;;5093700;28;19994;-47
2022/04/26 13:01:29;;;;;;;;;;;21.80;46.80;;;;;;5093714;28;19924;-46
2022/04/26 13:03:58;;;;;;;;;;;21.90;46.30;;;;;;5093964;28;19977;-49
2022/04/26 13:06:25;;;;;;;;;;;21.90;46.30;;;;;;5078721;28;20023;-52
2022/04/26 13:09:12;;;;;;;;;;;21.80;46.20;;;;;;5081238;28;19924;-51
2022/04/26 13:11:41;;;;;;;;;;;21.90;46.30;;;;;;5093572;28;19932;-50
2022/04/26 13:14:08;;;;;;;;;;;21.90;46.30;;;;;;5093583;28;19931;-45
2022/04/26 13:16:55;;;;;;;;;;;21.90;46.30;;;;;;5078703;28;19931;-45
2022/04/26 13:19:22;;;;;;;;;;;21.90;46.30;;;;;;5093385;28;19969;-45
2022/04/26 13:21:49;;;;;;;;;;;21.90;46.20;;;;;;5093548;28;19924;-46
2022/04/26 13:24:18;;;;;;;;;;;21.90;46.20;;;;;;5093291;28;19924;-45
2022/04/26 13:26:46;;;;;;;;;;;21.90;46.20;;;;;;5093612;28;19924;-45
2022/04/26 13:29:13;;;;;;;;;;;21.90;46.20;;;;;;5093574;28;19924;-49
2022/04/26 13:31:41;;;;;;;;;;;21.80;46.20;;;;;;5093325;28;19924;-45
2022/04/26 13:34:10;;;;;;;;;;;21.80;46.30;;;;;;5093535;28;20034;-45
2022/04/26 13:36:57;;;;;;;;;;;21.80;46.40;;;;;;5093243;28;19950;-47
2022/04/26 13:39:24;;;;;;;;;;;21.80;46.40;;;;;;5093151;28;20426;-45
2022/04/26 13:41:51;;;;;;;;;;;21.70;46.40;;;;;;5093256;28;19924;-46
2022/04/26 13:44:21;;;;;;;;;;;21.70;46.40;;;;;;5074952;28;19928;-46
2022/04/26 13:46:48;;;;;;;;;;;21.70;46.50;;;;;;5092454;28;20005;-45
2022/04/26 13:49:16;;;;;;;;;;;21.70;46.60;;;;;;5093037;28;20384;-45
2022/04/26 13:51:44;;;;;;;;;;;21.70;46.60;;;;;;5092929;28;19924;-45
2022/04/26 13:54:11;;;;;;;;;;;21.70;46.70;;;;;;5092902;28;19928;-44
2022/04/26 13:56:39;;;;;;;;;;;21.70;46.70;;;;;;5093645;28;20276;-46
2022/04/26 13:59:06;;;;;;;;;;;21.70;46.70;;;;;;5094197;28;20434;-46
2022/04/26 14:01:33;;;;;;;;;;;21.70;47.30;;;;;;5091845;28;20277;-48
2022/04/26 14:04:00;;;;;;;;;;;21.60;46.60;;;;;;5076867;28;20003;-46
2022/04/26 14:06:27;;;;;;;;;;;21.70;46.70;;;;;;5076584;28;19928;-45
2022/04/26 14:08:54;;;;;;;;;;;21.70;46.70;;;;;;5089569;28;20383;-45
2022/04/26 14:11:21;;;;;;;;;;;21.70;46.70;;;;;;5096727;28;19924;-44
2022/04/26 14:22:30;;;;;;;;;;;21.70;46.50;;;;;;5096475;28;19924;-45
2022/04/26 14:25:03;;;;;;;;;;;21.70;46.50;;;;;;5096554;28;19928;-45
2022/04/26 14:27:31;;;;;;;;;;;21.70;46.50;;;;;;5096376;28;20379;-45
2022/04/26 14:29:58;;;;;;;;;;;21.80;46.50;;;;;;5096565;28;19936;-45
2022/04/26 14:32:25;;;;;;;;;;;21.70;46.40;;;;;;5096665;28;20294;-48
2022/04/26 14:34:52;;;;;;;;;;;21.70;46.40;;;;;;5096710;28;19924;-45
2022/04/26 14:37:19;;;;;;;;;;;21.80;46.50;;;;;;5096671;28;19924;-47
2022/04/26 14:39:46;;;;;;;;;;;21.80;46.50;;;;;;5096503;28;20349;-45
2022/04/26 14:42:13;;;;;;;;;;;21.80;46.50;;;;;;5095206;28;19931;-47
2022/04/26 14:44:41;;;;;;;;;;;21.70;46.40;;;;;;5096464;28;20010;-50
2022/04/26 14:47:09;;;;;;;;;;;21.70;46.50;;;;;;5095995;28;19928;-45
2022/04/26 14:49:37;;;;;;;;;;;21.70;46.50;;;;;;5096126;28;19924;-46
2022/04/26 14:52:09;;;;;;;;;;;21.70;46.50;;;;;;5096090;28;20294;-45
2022/04/26 14:54:55;;;;;;;;;;;21.70;46.50;;;;;;5081685;28;19924;-46
2022/04/26 14:57:23;;;;;;;;;;;21.70;46.60;;;;;;5078000;28;19924;-45
2022/04/26 14:59:51;;;;;;;;;;;21.70;46.60;;;;;;5078089;28;19932;-48
2022/04/26 15:02:19;;;;;;;;;;;21.70;46.60;;;;;;5096076;28;20311;-45
2022/04/26 15:04:47;;;;;;;;;;;21.70;46.70;;;;;;5095889;28;20387;-45
2022/04/26 15:07:17;;;;;;;;;;;21.60;46.60;;;;;;5096047;28;20015;-47
2022/04/26 15:09:45;;;;;;;;;;;21.60;46.70;;;;;;5076569;28;19924;-45
2022/04/26 15:17:49;;;;;;;;;;;21.70;46.90;;;;;;5095921;28;19924;-45
2022/04/26 15:20:18;;;;;;;;;;;21.60;46.90;;;;;;5095360;28;20380;-45
2022/04/26 15:22:46;;;;;;;;;;;21.60;46.90;;;;;;5095400;28;19978;-45
2022/04/26 15:25:13;;;;;;;;;;;21.50;46.90;;;;;;5095451;28;20445;-44
2022/04/26 15:27:40;;;;;;;;;;;21.50;47.00;;;;;;5095435;28;20402;-45
2022/04/26 15:30:09;;;;;;;;;;;21.50;47.00;;;;;;5095328;28;19970;-45
2022/04/26 15:32:36;;;;;;;;;;;21.50;47.10;;;;;;5095285;28;19924;-44
2022/04/26 15:35:04;;;;;;;;;;;21.50;47.10;;;;;;5095126;28;19970;-44
2022/04/26 15:37:34;;;;;;;;;;;21.40;47.10;;;;;;5095248;28;20390;-45
2022/04/26 15:40:01;;;;;;;;;;;21.40;47.10;;;;;;5094417;28;19954;-45
2022/04/26 15:42:31;;;;;;;;;;;21.40;47.20;;;;;;5095032;28;20351;-46
2022/04/26 15:44:59;;;;;;;;;;;21.40;47.30;;;;;;5077531;28;19924;-47
2022/04/26 15:47:25;;;;;;;;;;;21.40;47.30;;;;;;5094953;28;19930;-45
2022/04/26 15:49:52;;;;;;;;;;;21.40;47.30;;;;;;5095332;28;19924;-45
2022/04/26 15:52:19;;;;;;;;;;;21.30;47.30;;;;;;5094698;28;19924;-44
2022/04/26 15:54:46;;;;;;;;;;;21.30;47.30;;;;;;5094785;28;19924;-46
2022/04/26 15:57:13;;;;;;;;;;;21.30;47.40;;;;;;5094710;28;19930;-44
2022/04/26 15:59:40;;;;;;;;;;;21.30;47.40;;;;;;5095046;28;19928;-46
2022/04/26 16:02:07;;;;;;;;;;;21.30;47.50;;;;;;5094660;28;19931;-45
2022/04/26 16:04:35;;;;;;;;;;;21.20;47.50;;;;;;5094698;28;19971;-45
2022/04/26 16:07:03;;;;;;;;;;;21.20;47.50;;;;;;5094775;28;19924;-45
2022/04/26 16:20:46;;;;;;;;;;;21.10;47.70;;;;;;5012045;28;19926;-44
2022/04/26 16:23:13;;;;;;;;;;;21.10;47.80;;;;;;5011607;28;19933;-45
2022/04/26 16:25:40;;;;;;;;;;;21.10;47.80;;;;;;5012394;28;20020;-45
2022/04/26 16:28:09;;;;;;;;;;;21.10;47.90;;;;;;5012320;28;19932;-45
2022/04/26 16:30:36;;;;;;;;;;;21.00;47.90;;;;;;5012133;28;19926;-46
2022/04/26 16:33:04;;;;;;;;;;;21.00;48.00;;;;;;5012014;28;19947;-45
2022/04/26 16:35:34;;;;;;;;;;;21.00;48.00;;;;;;5011768;28;19933;-45
2022/04/26 16:38:01;;;;;;;;;;;21.00;48.10;;;;;;5011773;28;19926;-45
2022/04/26 16:40:28;;;;;;;;;;;21.00;48.10;;;;;;5011269;28;19944;-46
2022/04/26 16:42:55;;;;;;;;;;;21.00;48.10;;;;;;5011728;28;20349;-44
2022/04/26 16:45:22;;;;;;;;;;;21.00;48.10;;;;;;5011513;28;19926;-45
2022/04/26 16:47:52;;;;;;;;;;;20.90;48.10;;;;;;5040177;28;19935;-46
2022/04/26 16:50:20;;;;;;;;;;;20.90;48.10;;;;;;5092306;28;20407;-46
2022/04/26 16:52:49;;;;;;;;;;;20.90;48.20;;;;;;5093125;28;19924;-46
2022/04/26 16:55:16;;;;;;;;;;;20.90;48.20;;;;;;5092803;28;19982;-45
2022/04/26 16:57:45;;;;;;;;;;;20.90;48.20;;;;;;5093510;28;19928;-45
2022/04/26 17:00:14;;;;;;;;;;;20.90;48.20;;;;;;5093165;28;19977;-46
2022/04/26 17:02:42;;;;;;;;;;;20.90;48.30;;;;;;5093442;28;20481;-45
2022/04/26 17:05:11;;;;;;;;;;;20.90;48.30;;;;;;5075438;28;19932;-45
2022/04/26 17:07:48;;;;;;;;;;;20.90;48.30;;;;;;5093398;28;19939;-45
2022/04/26 17:10:16;;;;;;;;;;;20.90;48.30;;;;;;5092598;28;19924;-45
2022/04/26 17:12:44;;;;;;;;;;;20.90;48.40;;;;;;5092774;28;19928;-50
2022/04/26 17:15:15;;;;;;;;;;;20.90;48.40;;;;;;5093128;28;20390;-47
2022/04/26 17:17:44;;;;;;;;;;;20.90;48.40;;;;;;5093123;28;19931;-45
2022/04/26 17:20:13;;;;;;;;;;;20.90;48.40;;;;;;5092061;28;19932;-50
2022/04/26 17:22:42;;;;;;;;;;;20.90;48.50;;;;;;5093064;28;19963;-47
2022/04/26 17:25:15;;;;;;;;;;;20.80;48.40;;;;;;5093078;28;19928;-49
2022/04/26 17:28:07;;;;;;;;;;;20.80;48.40;;;;;;5092900;28;19974;-49
2022/04/26 17:30:35;;;;;;;;;;;20.80;48.40;;;;;;5092923;28;19993;-50
2022/04/26 17:33:03;;;;;;;;;;;20.80;48.40;;;;;;5093540;28;19924;-47
2022/04/26 17:35:31;;;;;;;;;;;20.80;48.50;;;;;;5096818;28;20015;-48
2022/04/26 17:37:58;;;;;;;;;;;20.80;48.50;;;;;;5093130;28;19975;-46
2022/04/26 17:40:26;;;;;;;;;;;20.80;48.40;;;;;;5095281;28;20299;-49
2022/04/26 17:42:53;;;;;;;;;;;20.80;48.50;;;;;;5096157;28;19923;-49
2022/04/26 17:45:21;;;;;;;;;;;20.80;48.50;;;;;;5094683;28;20397;-49
2022/04/26 17:47:49;;;;;;;;;;;20.80;48.50;;;;;;5094299;28;19928;-47
2022/04/26 17:50:21;;;;;;;;;;;20.80;48.50;;;;;;5095342;28;20045;-47
2022/04/26 17:58:20;;;;;;;;;;;20.80;48.60;;;;;;5095901;28;19924;-52
2022/04/26 18:00:47;;;;;;;;;;;20.80;48.60;;;;;;5095618;28;19931;-44
2022/04/26 18:03:14;;;;;;;;;;;20.80;48.60;;;;;;5095901;28;19928;-45
2022/04/26 18:05:41;;;;;;;;;;;20.80;48.60;;;;;;5096290;28;19924;-45
2022/04/26 18:08:09;;;;;;;;;;;20.80;48.70;;;;;;5095437;28;19930;-50
2022/04/26 18:10:36;;;;;;;;;;;20.80;48.60;;;;;;5073284;28;20011;-46
2022/04/26 18:13:03;;;;;;;;;;;20.80;48.60;;;;;;5096222;28;20011;-45
2022/04/26 18:15:30;;;;;;;;;;;20.80;48.70;;;;;;5082595;28;19924;-45
2022/04/26 18:17:58;;;;;;;;;;;20.80;48.70;;;;;;5103854;28;19923;-45
2022/04/26 18:20:31;;;;;;;;;;;20.80;48.70;;;;;;5103315;28;20409;-46
2022/04/26 18:22:59;;;;;;;;;;;20.80;48.70;;;;;;5093577;28;19923;-44
2022/04/26 18:28:23;;;;;;;;;;;20.80;48.70;;;;;;5110033;28;19924;-47
2022/04/26 18:31:06;;;;;;;;;;;20.70;48.70;;;;;;5109366;28;20024;-45
2022/04/26 18:33:45;;;;;;;;;;;20.70;48.70;;;;;;5084714;28;20001;-45
2022/04/26 18:36:30;;;;;;;;;;;20.70;48.70;;;;;;5103079;28;19935;-46
2022/04/26 18:38:57;;;;;;;;;;;20.70;48.70;;;;;;5110824;28;19974;-45
2022/04/26 18:41:27;;;;;;;;;;;20.70;48.70;;;;;;5098265;28;20415;-45
2022/04/26 18:43:55;;;;;;;;;;;20.70;48.70;;;;;;5108152;28;20419;-48
2022/04/26 18:46:22;;;;;;;;;;;20.70;48.80;;;;;;5099823;28;20406;-46
2022/04/26 18:48:54;;;;;;;;;;;20.70;48.80;;;;;;5088575;28;19924;-47
2022/04/26 18:51:43;;;;;;;;;;;20.70;48.80;;;;;;5083083;28;19958;-48
2022/04/26 18:54:23;;;;;;;;;;;20.70;48.80;;;;;;5094780;28;19928;-47
2022/04/26 18:56:50;;;;;;;;;;;20.70;48.90;;;;;;5094797;28;20324;-44
2022/04/26 18:59:21;;;;;;;;;;;20.70;48.80;;;;;;5094766;28;20303;-45
2022/04/26 19:01:49;;;;;;;;;;;20.70;48.80;;;;;;5094589;28;19928;-47